sensor_id;sensor_type;location;lat;lon;timestamp;temperature;humidity
42037;DHT22;30340;52.004;5.908;2022-09-01T00:00:23;17.30;62.20
42037;DHT22;30340;52.004;5.908;2022-09-01T00:02:54;17.30;62.20
42037;DHT22;30340;52.004;5.908;2022-09-01T00:05:19;17.30;62.30
42037;DHT22;30340;52.004;5.908;2022-09-01T00:07:45;17.20;62.50
42037;DHT22;30340;52.004;5.908;2022-09-01T00:10:11;17.30;62.40
42037;DHT22;30340;52.004;5.908;2022-09-01T00:12:37;17.20;62.60
42037;DHT22;30340;52.004;5.908;2022-09-01T00:15:05;17.20;62.70
42037;DHT22;30340;52.004;5.908;2022-09-01T00:17:31;17.20;63.00
42037;DHT22;30340;52.004;5.908;2022-09-01T00:19:58;17.10;63.00
42037;DHT22;30340;52.004;5.908;2022-09-01T00:22:24;17.10;63.00
42037;DHT22;30340;52.004;5.908;2022-09-01T00:24:49;17.00;63.70
42037;DHT22;30340;52.004;5.908;2022-09-01T00:27:15;17.00;63.60
42037;DHT22;30340;52.004;5.908;2022-09-01T00:29:41;17.00;63.70
42037;DHT22;30340;52.004;5.908;2022-09-01T00:32:06;17.00;63.70
42037;DHT22;30340;52.004;5.908;2022-09-01T00:34:32;17.00;63.80
42037;DHT22;30340;52.004;5.908;2022-09-01T00:36:58;16.90;63.90
42037;DHT22;30340;52.004;5.908;2022-09-01T00:39:23;16.90;64.10
42037;DHT22;30340;52.004;5.908;2022-09-01T00:41:49;16.90;64.20
42037;DHT22;30340;52.004;5.908;2022-09-01T00:44:18;16.90;64.30
42037;DHT22;30340;52.004;5.908;2022-09-01T00:46:48;16.80;64.50
42037;DHT22;30340;52.004;5.908;2022-09-01T00:49:21;16.80;64.20
42037;DHT22;30340;52.004;5.908;2022-09-01T00:51:51;16.80;64.30
42037;DHT22;30340;52.004;5.908;2022-09-01T00:54:21;16.80;64.30
42037;DHT22;30340;52.004;5.908;2022-09-01T00:56:48;16.70;64.40
42037;DHT22;30340;52.004;5.908;2022-09-01T00:59:16;16.70;64.40
42037;DHT22;30340;52.004;5.908;2022-09-01T01:01:43;16.70;64.70
42037;DHT22;30340;52.004;5.908;2022-09-01T01:04:11;16.70;64.70
42037;DHT22;30340;52.004;5.908;2022-09-01T01:06:41;16.70;64.90
42037;DHT22;30340;52.004;5.908;2022-09-01T01:09:08;16.70;64.80
42037;DHT22;30340;52.004;5.908;2022-09-01T01:11:34;16.60;64.80
42037;DHT22;30340;52.004;5.908;2022-09-01T01:14:09;16.60;64.80
42037;DHT22;30340;52.004;5.908;2022-09-01T01:16:39;16.60;64.80
42037;DHT22;30340;52.004;5.908;2022-09-01T01:25:33;16.50;64.90
42037;DHT22;30340;52.004;5.908;2022-09-01T01:28:27;16.50;65.00
42037;DHT22;30340;52.004;5.908;2022-09-01T01:30:58;16.50;64.80
42037;DHT22;30340;52.004;5.908;2022-09-01T01:33:34;16.50;64.70
42037;DHT22;30340;52.004;5.908;2022-09-01T01:36:05;16.60;64.70
42037;DHT22;30340;52.004;5.908;2022-09-01T01:38:32;16.60;64.50
42037;DHT22;30340;52.004;5.908;2022-09-01T01:41:00;16.60;64.40
42037;DHT22;30340;52.004;5.908;2022-09-01T01:43:26;16.60;64.30
42037;DHT22;30340;52.004;5.908;2022-09-01T01:45:55;16.60;64.20
42037;DHT22;30340;52.004;5.908;2022-09-01T01:48:23;16.60;64.20
42037;DHT22;30340;52.004;5.908;2022-09-01T01:50:50;16.60;64.20
42037;DHT22;30340;52.004;5.908;2022-09-01T01:53:17;16.60;64.10
42037;DHT22;30340;52.004;5.908;2022-09-01T01:55:44;16.70;63.90
42037;DHT22;30340;52.004;5.908;2022-09-01T01:58:10;16.70;63.70
42037;DHT22;30340;52.004;5.908;2022-09-01T02:00:36;16.80;63.60
42037;DHT22;30340;52.004;5.908;2022-09-01T02:03:03;16.80;63.70
42037;DHT22;30340;52.004;5.908;2022-09-01T02:05:34;16.70;63.60
42037;DHT22;30340;52.004;5.908;2022-09-01T02:08:05;16.70;63.80
42037;DHT22;30340;52.004;5.908;2022-09-01T02:10:34;16.70;63.70
42037;DHT22;30340;52.004;5.908;2022-09-01T02:13:03;16.70;63.50
42037;DHT22;30340;52.004;5.908;2022-09-01T02:15:33;16.70;63.30
42037;DHT22;30340;52.004;5.908;2022-09-01T02:18:07;16.70;63.10
42037;DHT22;30340;52.004;5.908;2022-09-01T02:20:33;16.70;62.70
42037;DHT22;30340;52.004;5.908;2022-09-01T02:22:59;16.70;62.50
42037;DHT22;30340;52.004;5.908;2022-09-01T02:25:34;16.70;62.30
42037;DHT22;30340;52.004;5.908;2022-09-01T02:28:00;16.80;62.10
42037;DHT22;30340;52.004;5.908;2022-09-01T02:30:31;16.70;61.90
42037;DHT22;30340;52.004;5.908;2022-09-01T02:32:58;16.80;61.90
42037;DHT22;30340;52.004;5.908;2022-09-01T02:35:24;16.70;62.00
42037;DHT22;30340;52.004;5.908;2022-09-01T02:37:56;16.70;62.00
42037;DHT22;30340;52.004;5.908;2022-09-01T02:40:26;16.70;62.00
42037;DHT22;30340;52.004;5.908;2022-09-01T02:42:55;16.70;62.20
42037;DHT22;30340;52.004;5.908;2022-09-01T02:45:20;16.70;62.20
42037;DHT22;30340;52.004;5.908;2022-09-01T02:47:49;16.60;62.40
42037;DHT22;30340;52.004;5.908;2022-09-01T02:50:16;16.60;62.50
42037;DHT22;30340;52.004;5.908;2022-09-01T02:52:44;16.60;62.60
42037;DHT22;30340;52.004;5.908;2022-09-01T02:55:13;16.60;62.70
42037;DHT22;30340;52.004;5.908;2022-09-01T02:57:39;16.50;62.90
42037;DHT22;30340;52.004;5.908;2022-09-01T03:00:07;16.40;63.40
42037;DHT22;30340;52.004;5.908;2022-09-01T03:02:47;16.40;63.20
42037;DHT22;30340;52.004;5.908;2022-09-01T03:05:12;16.40;63.50
42037;DHT22;30340;52.004;5.908;2022-09-01T03:07:40;16.40;63.40
42037;DHT22;30340;52.004;5.908;2022-09-01T03:10:07;16.40;63.40
42037;DHT22;30340;52.004;5.908;2022-09-01T03:12:34;16.40;63.20
42037;DHT22;30340;52.004;5.908;2022-09-01T03:14:59;16.40;63.00
42037;DHT22;30340;52.004;5.908;2022-09-01T03:17:25;16.40;62.90
42037;DHT22;30340;52.004;5.908;2022-09-01T03:19:50;16.40;62.80
42037;DHT22;30340;52.004;5.908;2022-09-01T03:22:16;16.40;62.70
42037;DHT22;30340;52.004;5.908;2022-09-01T03:24:42;16.40;62.80
42037;DHT22;30340;52.004;5.908;2022-09-01T03:27:08;16.40;62.80
42037;DHT22;30340;52.004;5.908;2022-09-01T03:29:36;16.40;62.70
42037;DHT22;30340;52.004;5.908;2022-09-01T03:32:03;16.40;62.70
42037;DHT22;30340;52.004;5.908;2022-09-01T03:34:28;16.40;62.70
42037;DHT22;30340;52.004;5.908;2022-09-01T03:36:54;16.30;63.00
42037;DHT22;30340;52.004;5.908;2022-09-01T03:39:20;16.20;63.10
42037;DHT22;30340;52.004;5.908;2022-09-01T03:41:46;16.20;63.00
42037;DHT22;30340;52.004;5.908;2022-09-01T03:44:13;16.20;63.20
42037;DHT22;30340;52.004;5.908;2022-09-01T03:46:41;16.10;63.20
42037;DHT22;30340;52.004;5.908;2022-09-01T03:49:08;16.10;63.30
42037;DHT22;30340;52.004;5.908;2022-09-01T03:51:41;16.10;63.30
42037;DHT22;30340;52.004;5.908;2022-09-01T03:54:08;16.00;63.30
42037;DHT22;30340;52.004;5.908;2022-09-01T03:56:33;16.00;63.20
42037;DHT22;30340;52.004;5.908;2022-09-01T03:58:59;16.00;63.30
42037;DHT22;30340;52.004;5.908;2022-09-01T04:01:29;16.00;63.30
42037;DHT22;30340;52.004;5.908;2022-09-01T04:04:02;15.90;63.10
42037;DHT22;30340;52.004;5.908;2022-09-01T04:06:28;15.90;62.90
42037;DHT22;30340;52.004;5.908;2022-09-01T04:08:55;16.00;62.90
42037;DHT22;30340;52.004;5.908;2022-09-01T04:11:27;16.00;62.70
42037;DHT22;30340;52.004;5.908;2022-09-01T04:13:53;15.90;62.70
42037;DHT22;30340;52.004;5.908;2022-09-01T04:16:23;15.90;62.70
42037;DHT22;30340;52.004;5.908;2022-09-01T04:19:08;16.00;62.50
42037;DHT22;30340;52.004;5.908;2022-09-01T04:21:57;16.00;62.30
42037;DHT22;30340;52.004;5.908;2022-09-01T04:24:25;16.00;62.20
42037;DHT22;30340;52.004;5.908;2022-09-01T04:26:54;16.00;62.20
42037;DHT22;30340;52.004;5.908;2022-09-01T04:29:21;16.00;62.10
42037;DHT22;30340;52.004;5.908;2022-09-01T04:31:52;16.00;62.10
42037;DHT22;30340;52.004;5.908;2022-09-01T04:34:20;15.90;62.20
42037;DHT22;30340;52.004;5.908;2022-09-01T04:36:47;16.00;62.10
42037;DHT22;30340;52.004;5.908;2022-09-01T04:39:12;16.00;61.90
42037;DHT22;30340;52.004;5.908;2022-09-01T04:41:43;16.00;61.80
42037;DHT22;30340;52.004;5.908;2022-09-01T04:44:14;16.00;61.80
42037;DHT22;30340;52.004;5.908;2022-09-01T04:46:43;15.90;61.80
42037;DHT22;30340;52.004;5.908;2022-09-01T04:49:13;15.90;61.90
42037;DHT22;30340;52.004;5.908;2022-09-01T04:51:46;15.80;61.90
42037;DHT22;30340;52.004;5.908;2022-09-01T04:54:13;15.70;62.10
42037;DHT22;30340;52.004;5.908;2022-09-01T04:56:44;15.70;62.10
42037;DHT22;30340;52.004;5.908;2022-09-01T04:59:11;15.70;62.00
42037;DHT22;30340;52.004;5.908;2022-09-01T05:01:39;15.70;62.00
42037;DHT22;30340;52.004;5.908;2022-09-01T05:04:25;15.60;62.00
42037;DHT22;30340;52.004;5.908;2022-09-01T05:06:54;15.60;62.10
42037;DHT22;30340;52.004;5.908;2022-09-01T05:09:24;15.60;62.10
42037;DHT22;30340;52.004;5.908;2022-09-01T05:11:50;15.60;62.10
42037;DHT22;30340;52.004;5.908;2022-09-01T05:14:17;15.60;62.10
42037;DHT22;30340;52.004;5.908;2022-09-01T05:16:44;15.50;62.20
42037;DHT22;30340;52.004;5.908;2022-09-01T05:19:10;15.60;62.20
42037;DHT22;30340;52.004;5.908;2022-09-01T05:21:43;15.50;62.10
42037;DHT22;30340;52.004;5.908;2022-09-01T05:24:11;15.60;61.90
42037;DHT22;30340;52.004;5.908;2022-09-01T05:26:37;15.60;61.70
42037;DHT22;30340;52.004;5.908;2022-09-01T05:29:05;15.60;61.70
42037;DHT22;30340;52.004;5.908;2022-09-01T05:31:38;15.70;61.70
42037;DHT22;30340;52.004;5.908;2022-09-01T05:34:05;16.00;61.00
42037;DHT22;30340;52.004;5.908;2022-09-01T05:36:32;16.30;60.50
42037;DHT22;30340;52.004;5.908;2022-09-01T05:38:59;16.40;60.00
42037;DHT22;30340;52.004;5.908;2022-09-01T05:41:25;16.40;59.70
42037;DHT22;30340;52.004;5.908;2022-09-01T05:43:51;16.30;59.60
42037;DHT22;30340;52.004;5.908;2022-09-01T05:46:19;16.30;59.80
42037;DHT22;30340;52.004;5.908;2022-09-01T05:48:47;16.20;59.80
42037;DHT22;30340;52.004;5.908;2022-09-01T05:51:16;16.10;59.90
42037;DHT22;30340;52.004;5.908;2022-09-01T05:53:44;16.00;59.80
42037;DHT22;30340;52.004;5.908;2022-09-01T05:56:11;16.10;59.90
42037;DHT22;30340;52.004;5.908;2022-09-01T05:58:38;16.10;59.90
42037;DHT22;30340;52.004;5.908;2022-09-01T06:01:05;16.10;59.90
42037;DHT22;30340;52.004;5.908;2022-09-01T06:03:31;16.10;59.70
42037;DHT22;30340;52.004;5.908;2022-09-01T06:06:04;16.10;59.60
42037;DHT22;30340;52.004;5.908;2022-09-01T06:08:37;16.10;59.10
42037;DHT22;30340;52.004;5.908;2022-09-01T06:11:02;16.20;59.20
42037;DHT22;30340;52.004;5.908;2022-09-01T06:13:37;16.50;58.60
42037;DHT22;30340;52.004;5.908;2022-09-01T06:16:04;16.80;57.90
42037;DHT22;30340;52.004;5.908;2022-09-01T06:18:30;17.30;57.10
42037;DHT22;30340;52.004;5.908;2022-09-01T06:20:58;18.10;55.50
42037;DHT22;30340;52.004;5.908;2022-09-01T06:23:24;19.00;53.50
42037;DHT22;30340;52.004;5.908;2022-09-01T06:25:50;18.90;52.20
42037;DHT22;30340;52.004;5.908;2022-09-01T06:28:16;18.80;52.50
42037;DHT22;30340;52.004;5.908;2022-09-01T06:30:45;19.90;51.60
42037;DHT22;30340;52.004;5.908;2022-09-01T06:33:12;21.30;48.60
42037;DHT22;30340;52.004;5.908;2022-09-01T06:35:40;21.70;47.10
42037;DHT22;30340;52.004;5.908;2022-09-01T06:38:07;22.30;45.50
42037;DHT22;30340;52.004;5.908;2022-09-01T06:40:34;23.10;43.80
42037;DHT22;30340;52.004;5.908;2022-09-01T06:43:00;23.60;42.40
42037;DHT22;30340;52.004;5.908;2022-09-01T06:45:33;23.80;41.80
42037;DHT22;30340;52.004;5.908;2022-09-01T06:47:59;24.60;41.50
42037;DHT22;30340;52.004;5.908;2022-09-01T06:50:26;25.20;41.20
42037;DHT22;30340;52.004;5.908;2022-09-01T06:52:52;25.50;39.60
42037;DHT22;30340;52.004;5.908;2022-09-01T06:55:26;25.20;38.70
42037;DHT22;30340;52.004;5.908;2022-09-01T06:57:58;25.80;38.00
42037;DHT22;30340;52.004;5.908;2022-09-01T07:00:24;25.90;37.70
42037;DHT22;30340;52.004;5.908;2022-09-01T07:02:56;25.70;37.90
42037;DHT22;30340;52.004;5.908;2022-09-01T07:05:22;24.50;39.30
42037;DHT22;30340;52.004;5.908;2022-09-01T07:07:50;23.40;41.50
42037;DHT22;30340;52.004;5.908;2022-09-01T07:10:17;22.60;42.90
42037;DHT22;30340;52.004;5.908;2022-09-01T07:12:56;23.00;43.20
42037;DHT22;30340;52.004;5.908;2022-09-01T07:15:23;24.60;41.70
42037;DHT22;30340;52.004;5.908;2022-09-01T07:17:52;25.70;39.60
42037;DHT22;30340;52.004;5.908;2022-09-01T07:20:19;26.90;38.30
42037;DHT22;30340;52.004;5.908;2022-09-01T07:22:46;27.90;37.20
42037;DHT22;30340;52.004;5.908;2022-09-01T07:25:13;28.10;35.80
42037;DHT22;30340;52.004;5.908;2022-09-01T07:27:40;28.10;35.50
42037;DHT22;30340;52.004;5.908;2022-09-01T07:30:07;28.00;35.40
42037;DHT22;30340;52.004;5.908;2022-09-01T07:32:37;27.90;35.40
42037;DHT22;30340;52.004;5.908;2022-09-01T07:35:05;28.00;35.40
42037;DHT22;30340;52.004;5.908;2022-09-01T07:37:33;28.00;35.30
42037;DHT22;30340;52.004;5.908;2022-09-01T07:40:07;28.30;35.20
42037;DHT22;30340;52.004;5.908;2022-09-01T07:42:34;28.10;34.30
42037;DHT22;30340;52.004;5.908;2022-09-01T07:45:00;27.70;35.10
42037;DHT22;30340;52.004;5.908;2022-09-01T07:47:31;27.70;34.70
42037;DHT22;30340;52.004;5.908;2022-09-01T07:50:05;27.80;35.30
42037;DHT22;30340;52.004;5.908;2022-09-01T07:52:34;28.00;35.10
42037;DHT22;30340;52.004;5.908;2022-09-01T07:55:00;28.00;34.70
42037;DHT22;30340;52.004;5.908;2022-09-01T07:57:26;27.90;35.50
42037;DHT22;30340;52.004;5.908;2022-09-01T07:59:51;28.00;35.20
42037;DHT22;30340;52.004;5.908;2022-09-01T08:02:20;28.30;34.90
42037;DHT22;30340;52.004;5.908;2022-09-01T08:04:46;29.00;34.80
42037;DHT22;30340;52.004;5.908;2022-09-01T08:07:12;29.80;33.80
42037;DHT22;30340;52.004;5.908;2022-09-01T08:09:38;29.70;33.40
42037;DHT22;30340;52.004;5.908;2022-09-01T08:12:06;29.30;33.50
42037;DHT22;30340;52.004;5.908;2022-09-01T08:14:32;29.20;33.80
42037;DHT22;30340;52.004;5.908;2022-09-01T08:16:58;29.50;33.50
42037;DHT22;30340;52.004;5.908;2022-09-01T08:19:23;29.40;33.50
42037;DHT22;30340;52.004;5.908;2022-09-01T08:21:49;29.10;33.90
42037;DHT22;30340;52.004;5.908;2022-09-01T08:24:15;29.60;33.70
42037;DHT22;30340;52.004;5.908;2022-09-01T08:26:40;29.20;33.50
42037;DHT22;30340;52.004;5.908;2022-09-01T08:29:06;28.80;33.40
42037;DHT22;30340;52.004;5.908;2022-09-01T08:31:32;28.50;34.20
42037;DHT22;30340;52.004;5.908;2022-09-01T08:34:00;28.60;34.40
42037;DHT22;30340;52.004;5.908;2022-09-01T08:36:27;29.10;33.70
42037;DHT22;30340;52.004;5.908;2022-09-01T08:38:53;28.90;33.70
42037;DHT22;30340;52.004;5.908;2022-09-01T08:41:34;29.40;33.90
42037;DHT22;30340;52.004;5.908;2022-09-01T08:44:20;29.30;33.40
42037;DHT22;30340;52.004;5.908;2022-09-01T08:47:00;29.10;33.60
42037;DHT22;30340;52.004;5.908;2022-09-01T08:49:28;29.10;33.80
42037;DHT22;30340;52.004;5.908;2022-09-01T08:54:55;28.10;34.30
42037;DHT22;30340;52.004;5.908;2022-09-01T08:57:43;28.00;34.70
42037;DHT22;30340;52.004;5.908;2022-09-01T09:00:13;27.50;35.30
42037;DHT22;30340;52.004;5.908;2022-09-01T09:05:30;25.50;37.00
42037;DHT22;30340;52.004;5.908;2022-09-01T09:16:16;23.40;40.60
42037;DHT22;30340;52.004;5.908;2022-09-01T09:19:00;23.40;40.60
42037;DHT22;30340;52.004;5.908;2022-09-01T09:21:39;23.30;40.80
42037;DHT22;30340;52.004;5.908;2022-09-01T09:24:49;23.40;40.50
42037;DHT22;30340;52.004;5.908;2022-09-01T09:26:56;23.50;40.20
42037;DHT22;30340;52.004;5.908;2022-09-01T09:29:26;23.50;40.30
42037;DHT22;30340;52.004;5.908;2022-09-01T09:32:07;23.50;39.70
42037;DHT22;30340;52.004;5.908;2022-09-01T09:34:36;23.50;38.80
42037;DHT22;30340;52.004;5.908;2022-09-01T09:37:23;23.50;39.20
42037;DHT22;30340;52.004;5.908;2022-09-01T09:40:11;23.40;38.80
42037;DHT22;30340;52.004;5.908;2022-09-01T09:42:38;23.40;39.10
42037;DHT22;30340;52.004;5.908;2022-09-01T09:45:20;23.60;38.70
42037;DHT22;30340;52.004;5.908;2022-09-01T09:47:46;23.60;38.40
42037;DHT22;30340;52.004;5.908;2022-09-01T09:50:27;23.70;38.60
42037;DHT22;30340;52.004;5.908;2022-09-01T09:53:10;23.70;37.50
42037;DHT22;30340;52.004;5.908;2022-09-01T09:55:51;23.60;37.50
42037;DHT22;30340;52.004;5.908;2022-09-01T09:58:21;23.60;37.40
42037;DHT22;30340;52.004;5.908;2022-09-01T10:03:52;23.70;36.90
42037;DHT22;30340;52.004;5.908;2022-09-01T10:06:35;23.60;36.80
42037;DHT22;30340;52.004;5.908;2022-09-01T10:09:05;23.70;37.30
42037;DHT22;30340;52.004;5.908;2022-09-01T10:11:38;23.70;37.00
42037;DHT22;30340;52.004;5.908;2022-09-01T10:14:19;23.80;37.10
42037;DHT22;30340;52.004;5.908;2022-09-01T10:16:51;24.00;36.50
42037;DHT22;30340;52.004;5.908;2022-09-01T10:19:19;24.10;36.00
42037;DHT22;30340;52.004;5.908;2022-09-01T10:21:46;24.10;35.40
42037;DHT22;30340;52.004;5.908;2022-09-01T10:24:25;24.10;35.30
42037;DHT22;30340;52.004;5.908;2022-09-01T10:26:56;24.10;35.30
42037;DHT22;30340;52.004;5.908;2022-09-01T10:29:30;24.10;35.40
42037;DHT22;30340;52.004;5.908;2022-09-01T10:31:58;24.20;35.50
42037;DHT22;30340;52.004;5.908;2022-09-01T10:34:29;24.30;34.90
42037;DHT22;30340;52.004;5.908;2022-09-01T10:36:57;24.30;34.60
42037;DHT22;30340;52.004;5.908;2022-09-01T10:39:23;24.30;34.80
42037;DHT22;30340;52.004;5.908;2022-09-01T10:41:52;24.20;35.20
42037;DHT22;30340;52.004;5.908;2022-09-01T10:46:57;24.30;35.20
42037;DHT22;30340;52.004;5.908;2022-09-01T10:52:09;24.50;34.90
42037;DHT22;30340;52.004;5.908;2022-09-01T10:57:56;24.40;35.40
42037;DHT22;30340;52.004;5.908;2022-09-01T11:05:59;24.60;35.50
42037;DHT22;30340;52.004;5.908;2022-09-01T11:13:53;24.70;35.80
42037;DHT22;30340;52.004;5.908;2022-09-01T11:18:49;25.00;35.00
42037;DHT22;30340;52.004;5.908;2022-09-01T11:21:27;25.00;35.10
42037;DHT22;30340;52.004;5.908;2022-09-01T11:25:04;25.00;34.80
42037;DHT22;30340;52.004;5.908;2022-09-01T11:26:59;25.00;34.20
42037;DHT22;30340;52.004;5.908;2022-09-01T11:29:50;25.00;34.50
42037;DHT22;30340;52.004;5.908;2022-09-01T11:32:17;25.10;34.80
42037;DHT22;30340;52.004;5.908;2022-09-01T11:34:45;25.30;34.80
42037;DHT22;30340;52.004;5.908;2022-09-01T11:37:15;25.40;34.70
42037;DHT22;30340;52.004;5.908;2022-09-01T11:39:47;25.30;34.30
42037;DHT22;30340;52.004;5.908;2022-09-01T11:42:41;25.30;34.30
42037;DHT22;30340;52.004;5.908;2022-09-01T11:45:17;25.30;34.30
42037;DHT22;30340;52.004;5.908;2022-09-01T11:47:49;25.40;34.30
42037;DHT22;30340;52.004;5.908;2022-09-01T11:50:27;25.60;34.40
42037;DHT22;30340;52.004;5.908;2022-09-01T11:52:54;25.40;33.80
42037;DHT22;30340;52.004;5.908;2022-09-01T11:55:41;25.50;34.40
42037;DHT22;30340;52.004;5.908;2022-09-01T11:58:12;25.50;33.80
42037;DHT22;30340;52.004;5.908;2022-09-01T12:00:40;25.40;33.60
42037;DHT22;30340;52.004;5.908;2022-09-01T12:03:28;25.30;33.50
42037;DHT22;30340;52.004;5.908;2022-09-01T12:06:05;25.40;33.70
42037;DHT22;30340;52.004;5.908;2022-09-01T12:08:38;25.50;33.70
42037;DHT22;30340;52.004;5.908;2022-09-01T12:11:08;25.50;33.40
42037;DHT22;30340;52.004;5.908;2022-09-01T12:13:36;25.60;33.40
42037;DHT22;30340;52.004;5.908;2022-09-01T12:16:05;25.80;33.40
42037;DHT22;30340;52.004;5.908;2022-09-01T12:18:36;25.90;33.50
42037;DHT22;30340;52.004;5.908;2022-09-01T12:21:05;25.70;33.50
42037;DHT22;30340;52.004;5.908;2022-09-01T12:23:38;25.70;33.60
42037;DHT22;30340;52.004;5.908;2022-09-01T12:26:13;25.70;34.00
42037;DHT22;30340;52.004;5.908;2022-09-01T12:28:39;25.80;33.80
42037;DHT22;30340;52.004;5.908;2022-09-01T12:31:11;25.70;33.70
42037;DHT22;30340;52.004;5.908;2022-09-01T12:33:37;25.70;34.00
42037;DHT22;30340;52.004;5.908;2022-09-01T12:36:27;25.80;33.90
42037;DHT22;30340;52.004;5.908;2022-09-01T12:38:56;26.00;34.10
42037;DHT22;30340;52.004;5.908;2022-09-01T12:41:23;26.10;33.60
42037;DHT22;30340;52.004;5.908;2022-09-01T12:43:49;26.20;33.70
42037;DHT22;30340;52.004;5.908;2022-09-01T12:46:39;26.20;33.20
42037;DHT22;30340;52.004;5.908;2022-09-01T12:49:17;26.00;33.70
42037;DHT22;30340;52.004;5.908;2022-09-01T12:51:44;26.30;33.80
42037;DHT22;30340;52.004;5.908;2022-09-01T12:54:13;26.50;33.20
42037;DHT22;30340;52.004;5.908;2022-09-01T12:56:38;26.50;33.10
42037;DHT22;30340;52.004;5.908;2022-09-01T13:01:36;26.90;32.50
42037;DHT22;30340;52.004;5.908;2022-09-01T13:04:48;26.70;32.00
42037;DHT22;30340;52.004;5.908;2022-09-01T13:07:06;26.70;31.90
42037;DHT22;30340;52.004;5.908;2022-09-01T13:09:32;26.80;32.00
42037;DHT22;30340;52.004;5.908;2022-09-01T13:12:18;26.80;31.60
42037;DHT22;30340;52.004;5.908;2022-09-01T13:14:45;26.80;31.70
42037;DHT22;30340;52.004;5.908;2022-09-01T13:17:10;26.90;31.80
42037;DHT22;30340;52.004;5.908;2022-09-01T13:19:37;27.00;32.10
42037;DHT22;30340;52.004;5.908;2022-09-01T13:22:04;27.00;31.20
42037;DHT22;30340;52.004;5.908;2022-09-01T13:24:29;26.80;31.30
42037;DHT22;30340;52.004;5.908;2022-09-01T13:26:55;26.70;31.00
42037;DHT22;30340;52.004;5.908;2022-09-01T13:29:23;26.70;31.20
42037;DHT22;30340;52.004;5.908;2022-09-01T13:31:48;26.70;31.30
42037;DHT22;30340;52.004;5.908;2022-09-01T13:34:14;26.60;31.50
42037;DHT22;30340;52.004;5.908;2022-09-01T13:36:40;26.80;31.80
42037;DHT22;30340;52.004;5.908;2022-09-01T13:39:06;26.90;31.30
42037;DHT22;30340;52.004;5.908;2022-09-01T13:41:31;27.00;31.10
42037;DHT22;30340;52.004;5.908;2022-09-01T13:43:57;27.00;31.20
42037;DHT22;30340;52.004;5.908;2022-09-01T13:46:23;26.80;31.10
42037;DHT22;30340;52.004;5.908;2022-09-01T13:48:48;26.70;31.20
42037;DHT22;30340;52.004;5.908;2022-09-01T13:51:24;26.80;31.40
42037;DHT22;30340;52.004;5.908;2022-09-01T13:53:51;26.90;31.50
42037;DHT22;30340;52.004;5.908;2022-09-01T13:56:17;27.00;31.40
42037;DHT22;30340;52.004;5.908;2022-09-01T13:58:42;26.80;31.30
42037;DHT22;30340;52.004;5.908;2022-09-01T14:01:08;26.90;31.40
42037;DHT22;30340;52.004;5.908;2022-09-01T14:03:33;27.00;31.30
42037;DHT22;30340;52.004;5.908;2022-09-01T14:05:59;27.00;30.90
42037;DHT22;30340;52.004;5.908;2022-09-01T14:08:24;27.00;30.90
42037;DHT22;30340;52.004;5.908;2022-09-01T14:10:52;27.10;30.90
42037;DHT22;30340;52.004;5.908;2022-09-01T14:13:22;27.10;31.00
42037;DHT22;30340;52.004;5.908;2022-09-01T14:15:49;27.40;31.20
42037;DHT22;30340;52.004;5.908;2022-09-01T14:18:16;27.40;30.90
42037;DHT22;30340;52.004;5.908;2022-09-01T14:20:44;27.40;30.80
42037;DHT22;30340;52.004;5.908;2022-09-01T14:23:10;27.30;30.80
42037;DHT22;30340;52.004;5.908;2022-09-01T14:25:45;27.20;31.00
42037;DHT22;30340;52.004;5.908;2022-09-01T14:28:11;27.00;31.10
42037;DHT22;30340;52.004;5.908;2022-09-01T14:30:39;27.00;31.20
42037;DHT22;30340;52.004;5.908;2022-09-01T14:33:06;27.10;31.10
42037;DHT22;30340;52.004;5.908;2022-09-01T14:35:32;27.20;30.90
42037;DHT22;30340;52.004;5.908;2022-09-01T14:37:59;27.20;30.80
42037;DHT22;30340;52.004;5.908;2022-09-01T14:40:25;27.20;30.50
42037;DHT22;30340;52.004;5.908;2022-09-01T14:42:53;27.20;30.70
42037;DHT22;30340;52.004;5.908;2022-09-01T14:45:22;27.20;30.80
42037;DHT22;30340;52.004;5.908;2022-09-01T14:47:50;27.20;30.80
42037;DHT22;30340;52.004;5.908;2022-09-01T14:50:16;27.10;30.90
42037;DHT22;30340;52.004;5.908;2022-09-01T14:52:44;27.00;30.80
42037;DHT22;30340;52.004;5.908;2022-09-01T14:55:09;27.00;31.10
42037;DHT22;30340;52.004;5.908;2022-09-01T14:57:35;26.90;31.10
42037;DHT22;30340;52.004;5.908;2022-09-01T15:00:01;26.90;31.10
42037;DHT22;30340;52.004;5.908;2022-09-01T15:02:27;26.90;31.20
42037;DHT22;30340;52.004;5.908;2022-09-01T15:04:54;27.00;31.30
42037;DHT22;30340;52.004;5.908;2022-09-01T15:07:20;27.00;31.00
42037;DHT22;30340;52.004;5.908;2022-09-01T15:09:45;27.00;31.00
42037;DHT22;30340;52.004;5.908;2022-09-01T15:12:11;27.00;31.20
42037;DHT22;30340;52.004;5.908;2022-09-01T15:14:37;26.80;31.30
42037;DHT22;30340;52.004;5.908;2022-09-01T15:17:03;26.70;31.50
42037;DHT22;30340;52.004;5.908;2022-09-01T15:19:29;26.80;31.50
42037;DHT22;30340;52.004;5.908;2022-09-01T15:21:55;26.60;31.60
42037;DHT22;30340;52.004;5.908;2022-09-01T15:24:20;26.40;31.80
42037;DHT22;30340;52.004;5.908;2022-09-01T15:26:48;26.40;32.10
42037;DHT22;30340;52.004;5.908;2022-09-01T15:29:14;26.30;32.20
42037;DHT22;30340;52.004;5.908;2022-09-01T15:31:41;26.20;32.40
42037;DHT22;30340;52.004;5.908;2022-09-01T15:34:07;26.20;32.50
42037;DHT22;30340;52.004;5.908;2022-09-01T15:36:35;26.10;32.60
42037;DHT22;30340;52.004;5.908;2022-09-01T15:39:01;26.10;32.70
42037;DHT22;30340;52.004;5.908;2022-09-01T15:41:29;26.10;32.90
42037;DHT22;30340;52.004;5.908;2022-09-01T15:43:55;26.00;32.90
42037;DHT22;30340;52.004;5.908;2022-09-01T15:46:22;25.90;33.00
42037;DHT22;30340;52.004;5.908;2022-09-01T15:48:55;25.80;33.10
42037;DHT22;30340;52.004;5.908;2022-09-01T15:53:47;25.80;33.40
42037;DHT22;30340;52.004;5.908;2022-09-01T15:56:13;25.70;33.30
42037;DHT22;30340;52.004;5.908;2022-09-01T15:58:38;25.80;33.50
42037;DHT22;30340;52.004;5.908;2022-09-01T16:01:04;25.80;33.20
42037;DHT22;30340;52.004;5.908;2022-09-01T16:03:30;25.70;33.20
42037;DHT22;30340;52.004;5.908;2022-09-01T16:05:59;25.70;33.40
42037;DHT22;30340;52.004;5.908;2022-09-01T16:08:25;25.60;33.40
42037;DHT22;30340;52.004;5.908;2022-09-01T16:10:51;25.60;33.50
42037;DHT22;30340;52.004;5.908;2022-09-01T16:13:16;25.60;33.60
42037;DHT22;30340;52.004;5.908;2022-09-01T16:15:48;25.60;33.60
42037;DHT22;30340;52.004;5.908;2022-09-01T16:18:30;25.60;33.60
42037;DHT22;30340;52.004;5.908;2022-09-01T16:21:17;25.60;33.70
42037;DHT22;30340;52.004;5.908;2022-09-01T16:23:49;25.60;33.70
42037;DHT22;30340;52.004;5.908;2022-09-01T16:26:17;25.50;33.70
42037;DHT22;30340;52.004;5.908;2022-09-01T16:28:48;25.50;33.70
42037;DHT22;30340;52.004;5.908;2022-09-01T16:31:18;25.60;33.60
42037;DHT22;30340;52.004;5.908;2022-09-01T16:33:51;25.50;33.50